sensor_id;sensor_type;location;lat;lon;timestamp;P1;durP1;ratioP1;P2;durP2;ratioP2
8887;SDS011;4480;52.370;9.748;2023-12-20T00:01:34;9.48;;;8.05;;
8887;SDS011;4480;52.370;9.748;2023-12-20T00:04:01;7.63;;;5.90;;
8887;SDS011;4480;52.370;9.748;2023-12-20T00:06:30;9.95;;;7.35;;
8887;SDS011;4480;52.370;9.748;2023-12-20T00:08:57;9.90;;;7.30;;
8887;SDS011;4480;52.370;9.748;2023-12-20T00:11:24;12.27;;;7.25;;
8887;SDS011;4480;52.370;9.748;2023-12-20T00:13:50;11.65;;;7.10;;
8887;SDS011;4480;52.370;9.748;2023-12-20T00:16:18;10.88;;;7.13;;
8887;SDS011;4480;52.370;9.748;2023-12-20T00:18:44;9.85;;;6.45;;
8887;SDS011;4480;52.370;9.748;2023-12-20T00:21:11;10.05;;;6.88;;
8887;SDS011;4480;52.370;9.748;2023-12-20T00:23:39;13.43;;;7.20;;
8887;SDS011;4480;52.370;9.748;2023-12-20T00:26:06;8.75;;;5.72;;
8887;SDS011;4480;52.370;9.748;2023-12-20T00:28:33;7.10;;;5.50;;
8887;SDS011;4480;52.370;9.748;2023-12-20T00:30:59;8.70;;;6.10;;
8887;SDS011;4480;52.370;9.748;2023-12-20T00:33:27;9.65;;;5.50;;
8887;SDS011;4480;52.370;9.748;2023-12-20T00:35:53;8.45;;;5.65;;
8887;SDS011;4480;52.370;9.748;2023-12-20T00:38:20;10.40;;;5.35;;
8887;SDS011;4480;52.370;9.748;2023-12-20T00:40:49;6.50;;;4.80;;
8887;SDS011;4480;52.370;9.748;2023-12-20T00:43:15;13.25;;;5.18;;
8887;SDS011;4480;52.370;9.748;2023-12-20T00:45:42;11.02;;;5.15;;
8887;SDS011;4480;52.370;9.748;2023-12-20T00:48:09;14.30;;;6.35;;
8887;SDS011;4480;52.370;9.748;2023-12-20T00:50:36;10.90;;;7.13;;
8887;SDS011;4480;52.370;9.748;2023-12-20T00:53:03;9.18;;;5.35;;
8887;SDS011;4480;52.370;9.748;2023-12-20T00:55:30;9.13;;;4.55;;
8887;SDS011;4480;52.370;9.748;2023-12-20T00:57:58;16.75;;;4.60;;
8887;SDS011;4480;52.370;9.748;2023-12-20T01:00:25;14.65;;;5.82;;
8887;SDS011;4480;52.370;9.748;2023-12-20T01:02:52;7.20;;;3.60;;
8887;SDS011;4480;52.370;9.748;2023-12-20T01:05:19;9.98;;;3.40;;
8887;SDS011;4480;52.370;9.748;2023-12-20T01:07:48;6.95;;;3.55;;
8887;SDS011;4480;52.370;9.748;2023-12-20T01:10:14;9.80;;;2.85;;
8887;SDS011;4480;52.370;9.748;2023-12-20T01:12:42;8.18;;;3.75;;
8887;SDS011;4480;52.370;9.748;2023-12-20T01:15:11;8.95;;;3.72;;
8887;SDS011;4480;52.370;9.748;2023-12-20T01:17:38;7.13;;;2.83;;
8887;SDS011;4480;52.370;9.748;2023-12-20T01:20:05;7.80;;;3.17;;
8887;SDS011;4480;52.370;9.748;2023-12-20T01:22:33;9.27;;;3.95;;
8887;SDS011;4480;52.370;9.748;2023-12-20T01:25:00;8.98;;;3.15;;
8887;SDS011;4480;52.370;9.748;2023-12-20T01:27:28;12.02;;;2.65;;
8887;SDS011;4480;52.370;9.748;2023-12-20T01:29:56;5.15;;;2.92;;
8887;SDS011;4480;52.370;9.748;2023-12-20T01:32:24;8.30;;;3.00;;
8887;SDS011;4480;52.370;9.748;2023-12-20T01:34:51;7.70;;;3.00;;
8887;SDS011;4480;52.370;9.748;2023-12-20T01:37:17;11.07;;;3.50;;
8887;SDS011;4480;52.370;9.748;2023-12-20T01:39:44;10.80;;;3.00;;
8887;SDS011;4480;52.370;9.748;2023-12-20T01:42:11;3.20;;;2.40;;
8887;SDS011;4480;52.370;9.748;2023-12-20T01:44:37;5.82;;;2.45;;
8887;SDS011;4480;52.370;9.748;2023-12-20T01:47:04;17.60;;;3.13;;
8887;SDS011;4480;52.370;9.748;2023-12-20T01:49:33;7.00;;;2.95;;
8887;SDS011;4480;52.370;9.748;2023-12-20T01:51:59;6.43;;;3.10;;
8887;SDS011;4480;52.370;9.748;2023-12-20T01:54:26;6.05;;;2.40;;
8887;SDS011;4480;52.370;9.748;2023-12-20T01:56:53;5.45;;;2.38;;
8887;SDS011;4480;52.370;9.748;2023-12-20T01:59:20;7.05;;;2.42;;
8887;SDS011;4480;52.370;9.748;2023-12-20T02:01:47;9.75;;;2.30;;
8887;SDS011;4480;52.370;9.748;2023-12-20T02:04:14;8.35;;;2.58;;
8887;SDS011;4480;52.370;9.748;2023-12-20T02:06:43;6.43;;;2.83;;
8887;SDS011;4480;52.370;9.748;2023-12-20T02:09:12;8.98;;;2.78;;
8887;SDS011;4480;52.370;9.748;2023-12-20T02:11:39;12.00;;;3.15;;
8887;SDS011;4480;52.370;9.748;2023-12-20T02:14:06;5.72;;;2.40;;
8887;SDS011;4480;52.370;9.748;2023-12-20T02:16:33;8.60;;;2.75;;
8887;SDS011;4480;52.370;9.748;2023-12-20T02:18:59;6.25;;;2.63;;
8887;SDS011;4480;52.370;9.748;2023-12-20T02:21:32;5.40;;;2.42;;
8887;SDS011;4480;52.370;9.748;2023-12-20T02:24:00;4.68;;;2.20;;
8887;SDS011;4480;52.370;9.748;2023-12-20T02:26:26;8.20;;;2.42;;
8887;SDS011;4480;52.370;9.748;2023-12-20T02:28:53;7.35;;;2.70;;
8887;SDS011;4480;52.370;9.748;2023-12-20T02:31:21;11.00;;;2.70;;
8887;SDS011;4480;52.370;9.748;2023-12-20T02:33:48;7.28;;;3.08;;
8887;SDS011;4480;52.370;9.748;2023-12-20T02:36:15;6.68;;;2.45;;
8887;SDS011;4480;52.370;9.748;2023-12-20T02:38:43;6.07;;;2.50;;
8887;SDS011;4480;52.370;9.748;2023-12-20T02:41:10;8.60;;;3.10;;
8887;SDS011;4480;52.370;9.748;2023-12-20T02:43:36;8.05;;;3.10;;
8887;SDS011;4480;52.370;9.748;2023-12-20T02:46:03;6.32;;;3.22;;
8887;SDS011;4480;52.370;9.748;2023-12-20T02:48:30;7.63;;;3.50;;
8887;SDS011;4480;52.370;9.748;2023-12-20T02:50:57;7.68;;;3.25;;
8887;SDS011;4480;52.370;9.748;2023-12-20T02:53:24;6.70;;;3.35;;
8887;SDS011;4480;52.370;9.748;2023-12-20T02:55:52;7.82;;;3.95;;
8887;SDS011;4480;52.370;9.748;2023-12-20T02:58:18;6.50;;;2.72;;
8887;SDS011;4480;52.370;9.748;2023-12-20T03:00:45;4.90;;;3.00;;
8887;SDS011;4480;52.370;9.748;2023-12-20T03:03:12;6.55;;;2.80;;
8887;SDS011;4480;52.370;9.748;2023-12-20T03:05:39;11.95;;;3.38;;
8887;SDS011;4480;52.370;9.748;2023-12-20T03:08:06;5.32;;;2.28;;
8887;SDS011;4480;52.370;9.748;2023-12-20T03:10:32;5.28;;;2.10;;
8887;SDS011;4480;52.370;9.748;2023-12-20T03:13:00;8.70;;;2.75;;
8887;SDS011;4480;52.370;9.748;2023-12-20T03:15:27;5.20;;;2.13;;
8887;SDS011;4480;52.370;9.748;2023-12-20T03:17:54;9.18;;;2.65;;
8887;SDS011;4480;52.370;9.748;2023-12-20T03:20:21;3.42;;;1.92;;
8887;SDS011;4480;52.370;9.748;2023-12-20T03:22:48;7.03;;;2.38;;
8887;SDS011;4480;52.370;9.748;2023-12-20T03:25:14;10.95;;;2.30;;
8887;SDS011;4480;52.370;9.748;2023-12-20T03:27:41;3.63;;;1.70;;
8887;SDS011;4480;52.370;9.748;2023-12-20T03:30:10;4.38;;;1.95;;
8887;SDS011;4480;52.370;9.748;2023-12-20T03:32:38;7.43;;;2.03;;
8887;SDS011;4480;52.370;9.748;2023-12-20T03:35:05;5.35;;;1.88;;
8887;SDS011;4480;52.370;9.748;2023-12-20T03:37:32;6.20;;;1.65;;
8887;SDS011;4480;52.370;9.748;2023-12-20T03:39:59;6.03;;;1.90;;
8887;SDS011;4480;52.370;9.748;2023-12-20T03:42:25;4.22;;;1.83;;
8887;SDS011;4480;52.370;9.748;2023-12-20T03:44:52;6.32;;;1.50;;
8887;SDS011;4480;52.370;9.748;2023-12-20T03:47:20;5.68;;;1.63;;
8887;SDS011;4480;52.370;9.748;2023-12-20T03:49:47;5.28;;;1.80;;
8887;SDS011;4480;52.370;9.748;2023-12-20T03:52:14;5.68;;;1.40;;
8887;SDS011;4480;52.370;9.748;2023-12-20T03:54:41;5.40;;;1.83;;
8887;SDS011;4480;52.370;9.748;2023-12-20T03:57:08;7.38;;;3.38;;
8887;SDS011;4480;52.370;9.748;2023-12-20T03:59:36;3.97;;;1.25;;
8887;SDS011;4480;52.370;9.748;2023-12-20T04:02:03;6.70;;;1.42;;
8887;SDS011;4480;52.370;9.748;2023-12-20T04:04:32;6.45;;;1.90;;
8887;SDS011;4480;52.370;9.748;2023-12-20T04:06:58;6.38;;;1.80;;
8887;SDS011;4480;52.370;9.748;2023-12-20T04:12:46;11.13;;;1.80;;
8887;SDS011;4480;52.370;9.748;2023-12-20T04:15:13;6.50;;;1.70;;
8887;SDS011;4480;52.370;9.748;2023-12-20T04:17:39;2.17;;;1.20;;
8887;SDS011;4480;52.370;9.748;2023-12-20T04:20:07;9.02;;;1.52;;
8887;SDS011;4480;52.370;9.748;2023-12-20T04:22:34;4.55;;;2.05;;
8887;SDS011;4480;52.370;9.748;2023-12-20T04:25:01;6.75;;;2.03;;
8887;SDS011;4480;52.370;9.748;2023-12-20T04:27:28;6.10;;;2.00;;
8887;SDS011;4480;52.370;9.748;2023-12-20T04:29:56;8.23;;;2.30;;
8887;SDS011;4480;52.370;9.748;2023-12-20T04:32:22;6.13;;;2.15;;
8887;SDS011;4480;52.370;9.748;2023-12-20T04:34:49;5.45;;;2.40;;
8887;SDS011;4480;52.370;9.748;2023-12-20T04:37:16;6.03;;;2.80;;
8887;SDS011;4480;52.370;9.748;2023-12-20T04:39:43;8.88;;;2.92;;
8887;SDS011;4480;52.370;9.748;2023-12-20T04:42:10;8.10;;;2.53;;
8887;SDS011;4480;52.370;9.748;2023-12-20T04:44:36;7.10;;;2.50;;
8887;SDS011;4480;52.370;9.748;2023-12-20T04:47:05;12.48;;;3.60;;
8887;SDS011;4480;52.370;9.748;2023-12-20T04:49:31;5.35;;;2.42;;
8887;SDS011;4480;52.370;9.748;2023-12-20T04:51:58;8.80;;;2.80;;
8887;SDS011;4480;52.370;9.748;2023-12-20T04:54:25;5.85;;;2.70;;
8887;SDS011;4480;52.370;9.748;2023-12-20T04:56:52;11.43;;;4.18;;
8887;SDS011;4480;52.370;9.748;2023-12-20T04:59:18;8.10;;;2.92;;
8887;SDS011;4480;52.370;9.748;2023-12-20T05:01:45;4.35;;;2.22;;
8887;SDS011;4480;52.370;9.748;2023-12-20T05:04:13;9.18;;;2.30;;
8887;SDS011;4480;52.370;9.748;2023-12-20T05:06:40;6.50;;;2.40;;
8887;SDS011;4480;52.370;9.748;2023-12-20T05:09:07;6.43;;;3.33;;
8887;SDS011;4480;52.370;9.748;2023-12-20T05:11:34;10.55;;;2.90;;
8887;SDS011;4480;52.370;9.748;2023-12-20T05:14:00;6.20;;;1.90;;
8887;SDS011;4480;52.370;9.748;2023-12-20T05:16:27;11.48;;;2.53;;
8887;SDS011;4480;52.370;9.748;2023-12-20T05:18:54;9.30;;;2.78;;
8887;SDS011;4480;52.370;9.748;2023-12-20T05:21:22;11.65;;;2.80;;
8887;SDS011;4480;52.370;9.748;2023-12-20T05:23:49;5.18;;;2.80;;
8887;SDS011;4480;52.370;9.748;2023-12-20T05:26:16;10.20;;;3.40;;
8887;SDS011;4480;52.370;9.748;2023-12-20T05:28:42;3.72;;;1.85;;
8887;SDS011;4480;52.370;9.748;2023-12-20T05:31:09;13.80;;;3.30;;
8887;SDS011;4480;52.370;9.748;2023-12-20T05:33:36;7.45;;;3.15;;
8887;SDS011;4480;52.370;9.748;2023-12-20T05:36:03;13.90;;;4.15;;
8887;SDS011;4480;52.370;9.748;2023-12-20T05:38:32;5.68;;;2.78;;
8887;SDS011;4480;52.370;9.748;2023-12-20T05:40:58;8.73;;;3.35;;
8887;SDS011;4480;52.370;9.748;2023-12-20T05:43:25;12.00;;;4.18;;
8887;SDS011;4480;52.370;9.748;2023-12-20T05:45:52;5.65;;;3.40;;
8887;SDS011;4480;52.370;9.748;2023-12-20T05:48:19;7.85;;;3.60;;
8887;SDS011;4480;52.370;9.748;2023-12-20T05:50:45;7.65;;;3.47;;
8887;SDS011;4480;52.370;9.748;2023-12-20T05:53:12;9.10;;;3.42;;
8887;SDS011;4480;52.370;9.748;2023-12-20T05:55:40;8.38;;;2.78;;
8887;SDS011;4480;52.370;9.748;2023-12-20T05:58:07;10.05;;;3.67;;
8887;SDS011;4480;52.370;9.748;2023-12-20T06:00:34;7.03;;;3.35;;
8887;SDS011;4480;52.370;9.748;2023-12-20T06:03:00;9.88;;;3.63;;
8887;SDS011;4480;52.370;9.748;2023-12-20T06:05:27;7.60;;;3.05;;
8887;SDS011;4480;52.370;9.748;2023-12-20T06:07:54;5.57;;;2.92;;
8887;SDS011;4480;52.370;9.748;2023-12-20T06:10:22;9.32;;;3.70;;
8887;SDS011;4480;52.370;9.748;2023-12-20T06:12:50;7.60;;;3.40;;
8887;SDS011;4480;52.370;9.748;2023-12-20T06:15:17;9.32;;;3.47;;
8887;SDS011;4480;52.370;9.748;2023-12-20T06:17:44;8.43;;;3.63;;
8887;SDS011;4480;52.370;9.748;2023-12-20T06:20:11;7.55;;;3.10;;
8887;SDS011;4480;52.370;9.748;2023-12-20T06:22:38;5.13;;;3.15;;
8887;SDS011;4480;52.370;9.748;2023-12-20T06:25:05;7.13;;;3.00;;
8887;SDS011;4480;52.370;9.748;2023-12-20T06:27:33;3.78;;;2.25;;
8887;SDS011;4480;52.370;9.748;2023-12-20T06:30:01;7.18;;;3.50;;
8887;SDS011;4480;52.370;9.748;2023-12-20T06:32:28;6.28;;;3.60;;
8887;SDS011;4480;52.370;9.748;2023-12-20T06:34:55;10.68;;;3.65;;
8887;SDS011;4480;52.370;9.748;2023-12-20T06:37:22;10.55;;;3.55;;
8887;SDS011;4480;52.370;9.748;2023-12-20T06:39:48;14.63;;;3.83;;
8887;SDS011;4480;52.370;9.748;2023-12-20T06:42:15;7.10;;;3.40;;
8887;SDS011;4480;52.370;9.748;2023-12-20T06:44:42;11.18;;;4.13;;
8887;SDS011;4480;52.370;9.748;2023-12-20T06:47:10;17.70;;;4.18;;
8887;SDS011;4480;52.370;9.748;2023-12-20T06:49:39;8.45;;;3.58;;
8887;SDS011;4480;52.370;9.748;2023-12-20T06:52:06;9.40;;;3.78;;
8887;SDS011;4480;52.370;9.748;2023-12-20T06:54:33;9.10;;;3.10;;
8887;SDS011;4480;52.370;9.748;2023-12-20T06:57:00;14.85;;;3.70;;
8887;SDS011;4480;52.370;9.748;2023-12-20T06:59:28;13.23;;;4.00;;
8887;SDS011;4480;52.370;9.748;2023-12-20T07:01:54;8.13;;;3.97;;
8887;SDS011;4480;52.370;9.748;2023-12-20T07:04:22;11.73;;;3.30;;
8887;SDS011;4480;52.370;9.748;2023-12-20T07:06:49;8.45;;;3.80;;
8887;SDS011;4480;52.370;9.748;2023-12-20T07:09:18;10.93;;;3.50;;
8887;SDS011;4480;52.370;9.748;2023-12-20T07:11:45;9.80;;;3.55;;
8887;SDS011;4480;52.370;9.748;2023-12-20T07:14:12;9.45;;;3.25;;
8887;SDS011;4480;52.370;9.748;2023-12-20T07:16:39;13.43;;;4.00;;
8887;SDS011;4480;52.370;9.748;2023-12-20T07:19:06;8.90;;;4.43;;
8887;SDS011;4480;52.370;9.748;2023-12-20T07:21:34;9.50;;;4.30;;
8887;SDS011;4480;52.370;9.748;2023-12-20T07:24:01;8.18;;;3.10;;
8887;SDS011;4480;52.370;9.748;2023-12-20T07:26:28;14.00;;;4.20;;
8887;SDS011;4480;52.370;9.748;2023-12-20T07:28:54;9.43;;;3.28;;
8887;SDS011;4480;52.370;9.748;2023-12-20T07:31:21;10.63;;;4.00;;
8887;SDS011;4480;52.370;9.748;2023-12-20T07:33:49;14.90;;;4.40;;
8887;SDS011;4480;52.370;9.748;2023-12-20T07:36:15;14.40;;;4.78;;
8887;SDS011;4480;52.370;9.748;2023-12-20T07:38:44;16.42;;;4.38;;
8887;SDS011;4480;52.370;9.748;2023-12-20T07:41:10;13.52;;;4.00;;
8887;SDS011;4480;52.370;9.748;2023-12-20T07:43:37;13.38;;;4.10;;
8887;SDS011;4480;52.370;9.748;2023-12-20T07:46:05;14.63;;;4.97;;
8887;SDS011;4480;52.370;9.748;2023-12-20T07:48:32;12.18;;;3.88;;
8887;SDS011;4480;52.370;9.748;2023-12-20T07:50:59;13.10;;;4.05;;
8887;SDS011;4480;52.370;9.748;2023-12-20T07:53:26;6.38;;;2.95;;
8887;SDS011;4480;52.370;9.748;2023-12-20T07:55:54;12.25;;;3.03;;
8887;SDS011;4480;52.370;9.748;2023-12-20T07:58:21;11.43;;;3.83;;
8887;SDS011;4480;52.370;9.748;2023-12-20T08:00:48;6.32;;;3.05;;
8887;SDS011;4480;52.370;9.748;2023-12-20T08:03:15;9.57;;;3.75;;
8887;SDS011;4480;52.370;9.748;2023-12-20T08:05:42;11.32;;;3.78;;
8887;SDS011;4480;52.370;9.748;2023-12-20T08:08:08;11.68;;;3.28;;
8887;SDS011;4480;52.370;9.748;2023-12-20T08:10:35;12.13;;;4.00;;
8887;SDS011;4480;52.370;9.748;2023-12-20T08:13:03;7.85;;;4.07;;
8887;SDS011;4480;52.370;9.748;2023-12-20T08:15:30;14.38;;;4.20;;
8887;SDS011;4480;52.370;9.748;2023-12-20T08:17:57;10.05;;;4.72;;
8887;SDS011;4480;52.370;9.748;2023-12-20T08:20:24;12.20;;;4.90;;
8887;SDS011;4480;52.370;9.748;2023-12-20T08:22:51;12.57;;;4.88;;
8887;SDS011;4480;52.370;9.748;2023-12-20T08:25:17;11.27;;;4.93;;
8887;SDS011;4480;52.370;9.748;2023-12-20T08:27:44;15.55;;;5.32;;
8887;SDS011;4480;52.370;9.748;2023-12-20T08:30:12;14.75;;;4.50;;
8887;SDS011;4480;52.370;9.748;2023-12-20T08:32:41;10.32;;;4.78;;
8887;SDS011;4480;52.370;9.748;2023-12-20T08:35:08;12.30;;;5.03;;
8887;SDS011;4480;52.370;9.748;2023-12-20T08:37:35;7.68;;;3.70;;
8887;SDS011;4480;52.370;9.748;2023-12-20T08:40:02;13.30;;;4.30;;
8887;SDS011;4480;52.370;9.748;2023-12-20T08:42:29;9.25;;;4.00;;
8887;SDS011;4480;52.370;9.748;2023-12-20T08:44:56;6.22;;;3.45;;
8887;SDS011;4480;52.370;9.748;2023-12-20T08:47:25;8.40;;;3.88;;
8887;SDS011;4480;52.370;9.748;2023-12-20T08:49:52;8.35;;;3.30;;
8887;SDS011;4480;52.370;9.748;2023-12-20T08:52:21;10.73;;;4.15;;
8887;SDS011;4480;52.370;9.748;2023-12-20T08:54:48;11.18;;;5.00;;
8887;SDS011;4480;52.370;9.748;2023-12-20T08:57:16;9.20;;;4.40;;
8887;SDS011;4480;52.370;9.748;2023-12-20T08:59:43;10.00;;;5.05;;
8887;SDS011;4480;52.370;9.748;2023-12-20T09:02:10;7.53;;;4.07;;
8887;SDS011;4480;52.370;9.748;2023-12-20T09:04:38;14.70;;;4.47;;
8887;SDS011;4480;52.370;9.748;2023-12-20T09:07:05;12.30;;;4.25;;
8887;SDS011;4480;52.370;9.748;2023-12-20T09:09:32;11.90;;;5.47;;
8887;SDS011;4480;52.370;9.748;2023-12-20T09:11:59;11.18;;;4.07;;
8887;SDS011;4480;52.370;9.748;2023-12-20T09:14:26;10.15;;;4.05;;
8887;SDS011;4480;52.370;9.748;2023-12-20T09:16:53;9.40;;;4.65;;
8887;SDS011;4480;52.370;9.748;2023-12-20T09:19:20;10.60;;;5.28;;
8887;SDS011;4480;52.370;9.748;2023-12-20T09:21:49;9.32;;;4.13;;
8887;SDS011;4480;52.370;9.748;2023-12-20T09:24:15;13.30;;;3.55;;
8887;SDS011;4480;52.370;9.748;2023-12-20T09:26:42;10.40;;;4.43;;
8887;SDS011;4480;52.370;9.748;2023-12-20T09:29:09;8.43;;;5.07;;
8887;SDS011;4480;52.370;9.748;2023-12-20T09:31:40;11.65;;;4.53;;
8887;SDS011;4480;52.370;9.748;2023-12-20T09:34:08;9.43;;;4.43;;
8887;SDS011;4480;52.370;9.748;2023-12-20T09:36:35;9.70;;;3.83;;
8887;SDS011;4480;52.370;9.748;2023-12-20T09:39:05;21.65;;;5.15;;
8887;SDS011;4480;52.370;9.748;2023-12-20T09:41:32;12.23;;;3.90;;
8887;SDS011;4480;52.370;9.748;2023-12-20T09:44:03;13.50;;;4.57;;
8887;SDS011;4480;52.370;9.748;2023-12-20T09:46:31;7.55;;;4.30;;
8887;SDS011;4480;52.370;9.748;2023-12-20T09:49:01;11.07;;;3.63;;
8887;SDS011;4480;52.370;9.748;2023-12-20T09:51:28;10.32;;;4.15;;
8887;SDS011;4480;52.370;9.748;2023-12-20T09:53:56;13.07;;;3.55;;
8887;SDS011;4480;52.370;9.748;2023-12-20T09:56:26;9.25;;;3.47;;
8887;SDS011;4480;52.370;9.748;2023-12-20T09:58:54;8.63;;;3.40;;
8887;SDS011;4480;52.370;9.748;2023-12-20T10:01:21;11.63;;;3.97;;
8887;SDS011;4480;52.370;9.748;2023-12-20T10:03:48;6.50;;;2.90;;
8887;SDS011;4480;52.370;9.748;2023-12-20T10:06:17;6.03;;;3.75;;
8887;SDS011;4480;52.370;9.748;2023-12-20T10:08:44;10.85;;;3.67;;
8887;SDS011;4480;52.370;9.748;2023-12-20T10:11:11;7.15;;;3.10;;
8887;SDS011;4480;52.370;9.748;2023-12-20T10:13:40;5.15;;;3.45;;
8887;SDS011;4480;52.370;9.748;2023-12-20T10:16:07;18.00;;;4.40;;
8887;SDS011;4480;52.370;9.748;2023-12-20T10:18:34;9.70;;;3.92;;
8887;SDS011;4480;52.370;9.748;2023-12-20T10:21:01;8.50;;;3.30;;
8887;SDS011;4480;52.370;9.748;2023-12-20T10:23:28;10.38;;;2.90;;
8887;SDS011;4480;52.370;9.748;2023-12-20T10:25:56;10.50;;;3.50;;
8887;SDS011;4480;52.370;9.748;2023-12-20T10:28:23;8.27;;;2.95;;
8887;SDS011;4480;52.370;9.748;2023-12-20T10:30:54;10.05;;;3.58;;
8887;SDS011;4480;52.370;9.748;2023-12-20T10:33:23;7.00;;;2.85;;
8887;SDS011;4480;52.370;9.748;2023-12-20T10:35:51;10.10;;;3.42;;
8887;SDS011;4480;52.370;9.748;2023-12-20T10:38:18;6.47;;;2.70;;
8887;SDS011;4480;52.370;9.748;2023-12-20T10:40:45;9.30;;;3.40;;
8887;SDS011;4480;52.370;9.748;2023-12-20T10:43:12;14.88;;;3.50;;
8887;SDS011;4480;52.370;9.748;2023-12-20T10:45:41;9.48;;;3.83;;
8887;SDS011;4480;52.370;9.748;2023-12-20T10:48:10;6.50;;;3.47;;
8887;SDS011;4480;52.370;9.748;2023-12-20T10:50:37;5.70;;;3.30;;
8887;SDS011;4480;52.370;9.748;2023-12-20T10:53:05;12.02;;;3.00;;
8887;SDS011;4480;52.370;9.748;2023-12-20T10:55:33;14.48;;;3.75;;
8887;SDS011;4480;52.370;9.748;2023-12-20T10:58:00;6.00;;;3.53;;
8887;SDS011;4480;52.370;9.748;2023-12-20T11:00:32;10.25;;;3.55;;
8887;SDS011;4480;52.370;9.748;2023-12-20T11:03:05;7.70;;;3.70;;
8887;SDS011;4480;52.370;9.748;2023-12-20T11:05:38;7.93;;;3.10;;
8887;SDS011;4480;52.370;9.748;2023-12-20T11:08:12;4.05;;;3.10;;
8887;SDS011;4480;52.370;9.748;2023-12-20T11:10:43;7.75;;;2.80;;
8887;SDS011;4480;52.370;9.748;2023-12-20T11:13:17;7.10;;;3.22;;
8887;SDS011;4480;52.370;9.748;2023-12-20T11:15:48;7.57;;;3.55;;
8887;SDS011;4480;52.370;9.748;2023-12-20T11:18:15;7.45;;;2.85;;
8887;SDS011;4480;52.370;9.748;2023-12-20T11:20:43;4.80;;;2.65;;
8887;SDS011;4480;52.370;9.748;2023-12-20T11:23:10;9.02;;;2.70;;
8887;SDS011;4480;52.370;9.748;2023-12-20T11:25:47;5.18;;;3.30;;
8887;SDS011;4480;52.370;9.748;2023-12-20T11:28:14;6.05;;;2.97;;
8887;SDS011;4480;52.370;9.748;2023-12-20T11:30:46;6.80;;;3.33;;
8887;SDS011;4480;52.370;9.748;2023-12-20T11:33:13;5.80;;;3.08;;
8887;SDS011;4480;52.370;9.748;2023-12-20T11:35:41;8.05;;;3.35;;
8887;SDS011;4480;52.370;9.748;2023-12-20T11:38:09;7.53;;;3.50;;
8887;SDS011;4480;52.370;9.748;2023-12-20T11:40:37;7.28;;;3.83;;
8887;SDS011;4480;52.370;9.748;2023-12-20T11:43:03;7.53;;;4.45;;
8887;SDS011;4480;52.370;9.748;2023-12-20T11:45:31;8.88;;;3.92;;
8887;SDS011;4480;52.370;9.748;2023-12-20T11:47:59;8.27;;;2.53;;
8887;SDS011;4480;52.370;9.748;2023-12-20T11:50:27;8.05;;;2.53;;
8887;SDS011;4480;52.370;9.748;2023-12-20T11:52:54;7.25;;;2.40;;
8887;SDS011;4480;52.370;9.748;2023-12-20T11:55:23;2.95;;;1.67;;
8887;SDS011;4480;52.370;9.748;2023-12-20T11:57:50;13.70;;;3.00;;
8887;SDS011;4480;52.370;9.748;2023-12-20T12:00:18;2.83;;;1.67;;
8887;SDS011;4480;52.370;9.748;2023-12-20T12:02:54;6.85;;;1.45;;
8887;SDS011;4480;52.370;9.748;2023-12-20T12:05:22;2.30;;;1.00;;
8887;SDS011;4480;52.370;9.748;2023-12-20T12:07:48;2.97;;;1.30;;
8887;SDS011;4480;52.370;9.748;2023-12-20T12:10:15;2.97;;;1.20;;
8887;SDS011;4480;52.370;9.748;2023-12-20T12:12:43;4.75;;;1.73;;
8887;SDS011;4480;52.370;9.748;2023-12-20T12:15:10;1.02;;;0.95;;
8887;SDS011;4480;52.370;9.748;2023-12-20T12:17:37;2.65;;;0.93;;
8887;SDS011;4480;52.370;9.748;2023-12-20T12:20:05;1.23;;;0.70;;
8887;SDS011;4480;52.370;9.748;2023-12-20T12:22:33;2.10;;;1.13;;
8887;SDS011;4480;52.370;9.748;2023-12-20T12:25:09;1.10;;;0.85;;
8887;SDS011;4480;52.370;9.748;2023-12-20T12:27:36;2.53;;;1.30;;
8887;SDS011;4480;52.370;9.748;2023-12-20T12:30:05;2.08;;;1.00;;
8887;SDS011;4480;52.370;9.748;2023-12-20T12:32:33;1.85;;;0.70;;
8887;SDS011;4480;52.370;9.748;2023-12-20T12:35:00;2.10;;;1.63;;
8887;SDS011;4480;52.370;9.748;2023-12-20T12:37:28;3.58;;;1.23;;
8887;SDS011;4480;52.370;9.748;2023-12-20T12:39:55;3.40;;;1.50;;
8887;SDS011;4480;52.370;9.748;2023-12-20T12:42:23;1.60;;;0.85;;
8887;SDS011;4480;52.370;9.748;2023-12-20T12:44:53;3.30;;;1.40;;
8887;SDS011;4480;52.370;9.748;2023-12-20T12:47:21;3.25;;;1.27;;
8887;SDS011;4480;52.370;9.748;2023-12-20T12:49:49;7.53;;;1.83;;
8887;SDS011;4480;52.370;9.748;2023-12-20T12:52:17;4.72;;;1.20;;
8887;SDS011;4480;52.370;9.748;2023-12-20T12:54:44;5.97;;;2.65;;
8887;SDS011;4480;52.370;9.748;2023-12-20T12:57:13;2.58;;;0.98;;
8887;SDS011;4480;52.370;9.748;2023-12-20T12:59:40;3.95;;;1.02;;
8887;SDS011;4480;52.370;9.748;2023-12-20T13:02:07;0.98;;;0.90;;
8887;SDS011;4480;52.370;9.748;2023-12-20T13:04:35;6.00;;;0.90;;
8887;SDS011;4480;52.370;9.748;2023-12-20T13:07:02;3.88;;;1.58;;
8887;SDS011;4480;52.370;9.748;2023-12-20T13:09:29;4.70;;;1.33;;
8887;SDS011;4480;52.370;9.748;2023-12-20T13:11:57;1.13;;;0.85;;
8887;SDS011;4480;52.370;9.748;2023-12-20T13:14:24;3.45;;;1.15;;
8887;SDS011;4480;52.370;9.748;2023-12-20T13:16:50;5.38;;;1.20;;
8887;SDS011;4480;52.370;9.748;2023-12-20T13:19:17;1.73;;;1.10;;
8887;SDS011;4480;52.370;9.748;2023-12-20T13:21:45;2.53;;;1.27;;
8887;SDS011;4480;52.370;9.748;2023-12-20T13:24:12;2.60;;;2.00;;
8887;SDS011;4480;52.370;9.748;2023-12-20T13:26:39;2.30;;;1.30;;
8887;SDS011;4480;52.370;9.748;2023-12-20T13:29:05;2.15;;;1.95;;
8887;SDS011;4480;52.370;9.748;2023-12-20T13:31:32;2.45;;;1.23;;
8887;SDS011;4480;52.370;9.748;2023-12-20T13:34:01;4.47;;;1.38;;
8887;SDS011;4480;52.370;9.748;2023-12-20T13:36:28;1.90;;;1.30;;
8887;SDS011;4480;52.370;9.748;2023-12-20T13:38:56;3.50;;;1.45;;
8887;SDS011;4480;52.370;9.748;2023-12-20T13:41:23;4.32;;;1.35;;
8887;SDS011;4480;52.370;9.748;2023-12-20T13:43:50;2.90;;;1.55;;
8887;SDS011;4480;52.370;9.748;2023-12-20T13:46:16;2.10;;;1.30;;
8887;SDS011;4480;52.370;9.748;2023-12-20T13:48:43;3.60;;;1.42;;
8887;SDS011;4480;52.370;9.748;2023-12-20T13:51:10;5.18;;;1.50;;
8887;SDS011;4480;52.370;9.748;2023-12-20T13:53:37;3.22;;;1.40;;
8887;SDS011;4480;52.370;9.748;2023-12-20T13:56:06;2.88;;;1.38;;
8887;SDS011;4480;52.370;9.748;2023-12-20T13:58:33;1.98;;;1.17;;
8887;SDS011;4480;52.370;9.748;2023-12-20T14:00:59;3.47;;;1.20;;
8887;SDS011;4480;52.370;9.748;2023-12-20T14:03:26;4.65;;;1.73;;
8887;SDS011;4480;52.370;9.748;2023-12-20T14:05:54;3.05;;;1.70;;
8887;SDS011;4480;52.370;9.748;2023-12-20T14:08:21;2.10;;;1.23;;
8887;SDS011;4480;52.370;9.748;2023-12-20T14:10:49;5.45;;;1.48;;
8887;SDS011;4480;52.370;9.748;2023-12-20T14:13:17;3.47;;;1.60;;
8887;SDS011;4480;52.370;9.748;2023-12-20T14:15:44;2.97;;;1.67;;
8887;SDS011;4480;52.370;9.748;2023-12-20T14:18:12;3.20;;;1.77;;
8887;SDS011;4480;52.370;9.748;2023-12-20T14:20:40;3.58;;;1.50;;
8887;SDS011;4480;52.370;9.748;2023-12-20T14:23:07;5.03;;;2.20;;
8887;SDS011;4480;52.370;9.748;2023-12-20T14:25:34;3.25;;;1.88;;
8887;SDS011;4480;52.370;9.748;2023-12-20T14:28:02;2.67;;;1.88;;
8887;SDS011;4480;52.370;9.748;2023-12-20T14:30:31;4.20;;;2.28;;
8887;SDS011;4480;52.370;9.748;2023-12-20T14:32:57;2.03;;;1.30;;
8887;SDS011;4480;52.370;9.748;2023-12-20T14:35:24;2.40;;;1.52;;
8887;SDS011;4480;52.370;9.748;2023-12-20T14:37:51;4.50;;;1.58;;
8887;SDS011;4480;52.370;9.748;2023-12-20T14:40:18;4.63;;;1.40;;
8887;SDS011;4480;52.370;9.748;2023-12-20T14:42:45;7.00;;;1.55;;
8887;SDS011;4480;52.370;9.748;2023-12-20T14:45:12;4.53;;;1.70;;
8887;SDS011;4480;52.370;9.748;2023-12-20T14:47:42;5.55;;;1.67;;
8887;SDS011;4480;52.370;9.748;2023-12-20T14:50:09;5.47;;;1.88;;
8887;SDS011;4480;52.370;9.748;2023-12-20T14:52:37;7.93;;;1.60;;
8887;SDS011;4480;52.370;9.748;2023-12-20T14:55:04;2.58;;;1.25;;
8887;SDS011;4480;52.370;9.748;2023-12-20T14:57:31;2.85;;;1.15;;
8887;SDS011;4480;52.370;9.748;2023-12-20T14:59:58;7.50;;;1.90;;
8887;SDS011;4480;52.370;9.748;2023-12-20T15:02:25;5.47;;;1.92;;
8887;SDS011;4480;52.370;9.748;2023-12-20T15:04:53;2.80;;;1.30;;
8887;SDS011;4480;52.370;9.748;2023-12-20T15:07:20;6.57;;;2.03;;
8887;SDS011;4480;52.370;9.748;2023-12-20T15:09:46;7.53;;;1.90;;
8887;SDS011;4480;52.370;9.748;2023-12-20T15:12:14;3.63;;;1.77;;
8887;SDS011;4480;52.370;9.748;2023-12-20T15:14:41;4.90;;;1.30;;
8887;SDS011;4480;52.370;9.748;2023-12-20T15:17:08;8.70;;;1.98;;